^^
Station Historical Data
Daily Summary for May 17, 2018 Units:  Both    English   Metric
« Previous Day
Next Day »
Daily Weekly Monthly Yearly Custom
  High: Low: Average:
Temperature: TemperatureF °F /  -17.8 °C 42.5 °F /  5.8 °C 58.9 °F /  14.9 °C
Dew Point: DewpointF °F /  -17.8 °C 28.0 °F /  -2.2 °C 42.3 °F /  5.7 °C
Humidity: Humidity % 23 % 56 %
Wind Speed: WindSpeedMPH mph /  0 km/h - 0.3 mph /  0.5 km/h
Wind Gust: WindSpeedGustMPH mph /  0 km/h - -
Wind:- - WSW
Pressure: PressureIn in /  0 hPa 29.84 in /  1010.4 hPa -
Precipitation: 0.00 in /  0 mm    
Historical Graphs
 
 
Tabular Data for May 17, 2018
Time Temperature Dew Point Pressure Wind Wind Speed Wind Gust Humidity Rainfall Rate (Hourly) solar Conditions
TemperatureF °F /  -17.8 °C DewpointF °F /  -17.8 °C PressureIn in /  0 hPa Calm     Humidity % HourlyPrecipIn in /  0 mm SoftwareType W/m2 Conditions
00:04 62.6 °F /  17 °C 45.8 °F /  7.7 °C 29.85 in /  1010.7 hPa WNW 2.0 mph /  3.2 km/h 6.0 mph /  9.7 km/h 54 % 0.00 in /  0 mm WeatherDisplay:10.37 W/m2 FEW
00:09 62.6 °F /  17 °C 45.7 °F /  7.6 °C 29.84 in /  1010.4 hPa Calm   8.0 mph /  12.9 km/h 54 % 0.00 in /  0 mm WeatherDisplay:10.37 W/m2 FEW
00:14 62.5 °F /  16.9 °C 46.1 °F /  7.8 °C 29.85 in /  1010.7 hPa WSW 2.0 mph /  3.2 km/h 9.0 mph /  14.5 km/h 55 % 0.00 in /  0 mm WeatherDisplay:10.37 W/m2 FEW
00:19 62.4 °F /  16.9 °C 46.0 °F /  7.8 °C 29.85 in /  1010.7 hPa West 1.0 mph /  1.6 km/h 9.0 mph /  14.5 km/h 55 % 0.00 in /  0 mm WeatherDisplay:10.37 W/m2 FEW
00:24 62.3 °F /  16.8 °C 46.4 °F /  8 °C 29.85 in /  1010.7 hPa WSW 2.0 mph /  3.2 km/h 9.0 mph /  14.5 km/h 56 % 0.00 in /  0 mm WeatherDisplay:10.37 W/m2 FEW
00:29 62.2 °F /  16.8 °C 46.3 °F /  7.9 °C 29.85 in /  1010.7 hPa WSW 1.0 mph /  1.6 km/h 5.0 mph /  8 km/h 56 % 0.00 in /  0 mm WeatherDisplay:10.37 W/m2 FEW
00:34 62.1 °F /  16.7 °C 46.2 °F /  7.9 °C 29.85 in /  1010.7 hPa WSW 1.0 mph /  1.6 km/h 7.0 mph /  11.3 km/h 56 % 0.00 in /  0 mm WeatherDisplay:10.37 W/m2 FEW
00:39 62.0 °F /  16.7 °C 46.1 °F /  7.8 °C 29.85 in /  1010.7 hPa West 1.0 mph /  1.6 km/h 5.0 mph /  8 km/h 56 % 0.00 in /  0 mm WeatherDisplay:10.37 W/m2 FEW
00:44 61.9 °F /  16.6 °C 46.0 °F /  7.8 °C 29.85 in /  1010.7 hPa West 2.0 mph /  3.2 km/h 7.0 mph /  11.3 km/h 56 % 0.00 in /  0 mm WeatherDisplay:10.37 W/m2 FEW
00:49 61.8 °F /  16.6 °C 45.9 °F /  7.7 °C 29.85 in /  1010.7 hPa West 1.0 mph /  1.6 km/h 6.0 mph /  9.7 km/h 56 % 0.00 in /  0 mm WeatherDisplay:10.37 W/m2 FEW
00:54 61.7 °F /  16.5 °C 46.3 °F /  7.9 °C 29.85 in /  1010.7 hPa NW 1.0 mph /  1.6 km/h 7.0 mph /  11.3 km/h 57 % 0.00 in /  0 mm WeatherDisplay:10.37 W/m2 FEW
00:59 61.6 °F /  16.4 °C 46.2 °F /  7.9 °C 29.85 in /  1010.7 hPa NNW 2.0 mph /  3.2 km/h 7.0 mph /  11.3 km/h 57 % 0.00 in /  0 mm WeatherDisplay:10.37 W/m2 FEW
01:04 61.5 °F /  16.4 °C 46.1 °F /  7.8 °C 29.86 in /  1011.1 hPa WNW 1.0 mph /  1.6 km/h 6.0 mph /  9.7 km/h 57 % 0.00 in /  0 mm WeatherDisplay:10.37 W/m2 FEW
01:09 61.5 °F /  16.4 °C 46.6 °F /  8.1 °C 29.86 in /  1011.1 hPa Calm   10.0 mph /  16.1 km/h 58 % 0.00 in /  0 mm WeatherDisplay:10.37 W/m2 FEW
01:14 61.5 °F /  16.4 °C 46.6 °F /  8.1 °C 29.85 in /  1010.7 hPa NW 2.0 mph /  3.2 km/h 11.0 mph /  17.7 km/h 58 % 0.00 in /  0 mm WeatherDisplay:10.37 W/m2 FEW
01:19 61.5 °F /  16.4 °C 46.6 °F /  8.1 °C 29.85 in /  1010.7 hPa Calm   8.0 mph /  12.9 km/h 58 % 0.00 in /  0 mm WeatherDisplay:10.37 W/m2 FEW
01:24 61.6 °F /  16.4 °C 47.1 °F /  8.4 °C 29.86 in /  1011.1 hPa NW 3.0 mph /  4.8 km/h 12.0 mph /  19.3 km/h 59 % 0.00 in /  0 mm WeatherDisplay:10.37 W/m2 FEW
01:29 61.6 °F /  16.4 °C 47.1 °F /  8.4 °C 29.86 in /  1011.1 hPa WNW 2.0 mph /  3.2 km/h 10.0 mph /  16.1 km/h 59 % 0.00 in /  0 mm WeatherDisplay:10.37 W/m2 FEW
01:34 61.7 °F /  16.5 °C 47.2 °F /  8.4 °C 29.85 in /  1010.7 hPa NW 2.0 mph /  3.2 km/h 13.0 mph /  20.9 km/h 59 % 0.00 in /  0 mm WeatherDisplay:10.37 W/m2 FEW
01:39 61.8 °F /  16.6 °C 47.3 °F /  8.5 °C 29.85 in /  1010.7 hPa NNW 1.0 mph /  1.6 km/h 8.0 mph /  12.9 km/h 59 % 0.00 in /  0 mm WeatherDisplay:10.37 W/m2 FEW
01:44 61.8 °F /  16.6 °C 47.8 °F /  8.8 °C 29.86 in /  1011.1 hPa NNW 1.0 mph /  1.6 km/h 9.0 mph /  14.5 km/h 60 % 0.00 in /  0 mm WeatherDisplay:10.37 W/m2 FEW
01:49 61.8 °F /  16.6 °C 47.8 °F /  8.8 °C 29.85 in /  1010.7 hPa NW 1.0 mph /  1.6 km/h 9.0 mph /  14.5 km/h 60 % 0.00 in /  0 mm WeatherDisplay:10.37 W/m2 FEW
01:54 61.8 °F /  16.6 °C 48.2 °F /  9 °C 29.85 in /  1010.7 hPa WNW 1.0 mph /  1.6 km/h 10.0 mph /  16.1 km/h 61 % 0.00 in /  0 mm WeatherDisplay:10.37 W/m2 FEW
01:59 61.7 °F /  16.5 °C 48.2 °F /  9 °C 29.85 in /  1010.7 hPa Calm   6.0 mph /  9.7 km/h 61 % 0.00 in /  0 mm WeatherDisplay:10.37 W/m2 FEW
02:04 61.7 °F /  16.5 °C 48.1 °F /  8.9 °C 29.85 in /  1010.7 hPa West 1.0 mph /  1.6 km/h 5.0 mph /  8 km/h 61 % 0.00 in /  0 mm WeatherDisplay:10.37 W/m2 FEW
02:09 61.6 °F /  16.4 °C 48.0 °F /  8.9 °C 29.86 in /  1011.1 hPa WSW 1.0 mph /  1.6 km/h 6.0 mph /  9.7 km/h 61 % 0.00 in /  0 mm WeatherDisplay:10.37 W/m2 FEW
02:14 61.4 °F /  16.3 °C 48.3 °F /  9.1 °C 29.86 in /  1011.1 hPa WSW 1.0 mph /  1.6 km/h 5.0 mph /  8 km/h 62 % 0.00 in /  0 mm WeatherDisplay:10.37 W/m2 FEW
02:19 61.3 °F /  16.3 °C 48.1 °F /  8.9 °C 29.86 in /  1011.1 hPa WSW 1.0 mph /  1.6 km/h 4.0 mph /  6.4 km/h 62 % 0.00 in /  0 mm WeatherDisplay:10.37 W/m2 FEW
02:24 61.1 °F /  16.2 °C 48.4 °F /  9.1 °C 29.86 in /  1011.1 hPa Calm   3.0 mph /  4.8 km/h 63 % 0.00 in /  0 mm WeatherDisplay:10.37 W/m2 FEW
02:29 61.0 °F /  16.1 °C 48.3 °F /  9.1 °C 29.86 in /  1011.1 hPa Calm   4.0 mph /  6.4 km/h 63 % 0.00 in /  0 mm WeatherDisplay:10.37 W/m2 FEW
02:34 60.8 °F /  16 °C 48.5 °F /  9.2 °C 29.86 in /  1011.1 hPa Calm   4.0 mph /  6.4 km/h 64 % 0.00 in /  0 mm WeatherDisplay:10.37 W/m2 FEW
02:39 60.7 °F /  15.9 °C 48.4 °F /  9.1 °C 29.85 in /  1010.7 hPa Calm   5.0 mph /  8 km/h 64 % 0.00 in /  0 mm WeatherDisplay:10.37 W/m2 FEW
02:44 60.6 °F /  15.9 °C 48.3 °F /  9.1 °C 29.85 in /  1010.7 hPa West 1.0 mph /  1.6 km/h 4.0 mph /  6.4 km/h 64 % 0.00 in /  0 mm WeatherDisplay:10.37 W/m2 FEW
02:49 60.5 °F /  15.8 °C 48.7 °F /  9.3 °C 29.86 in /  1011.1 hPa Calm   2.0 mph /  3.2 km/h 65 % 0.00 in /  0 mm WeatherDisplay:10.37 W/m2 FEW
02:54 60.4 °F /  15.8 °C 48.6 °F /  9.2 °C 29.86 in /  1011.1 hPa Calm   5.0 mph /  8 km/h 65 % 0.00 in /  0 mm WeatherDisplay:10.37 W/m2 FEW
02:59 60.4 °F /  15.8 °C 48.2 °F /  9 °C 29.86 in /  1011.1 hPa Calm   5.0 mph /  8 km/h 64 % 0.00 in /  0 mm WeatherDisplay:10.37 W/m2 FEW
03:04 60.3 °F /  15.7 °C 48.1 °F /  8.9 °C 29.86 in /  1011.1 hPa Calm   3.0 mph /  4.8 km/h 64 % 0.00 in /  0 mm WeatherDisplay:10.37 W/m2 FEW
03:09 60.3 °F /  15.7 °C 48.5 °F /  9.2 °C 29.86 in /  1011.1 hPa West 1.0 mph /  1.6 km/h 4.0 mph /  6.4 km/h 65 % 0.00 in /  0 mm WeatherDisplay:10.37 W/m2 FEW
03:14 60.2 °F /  15.7 °C 48.0 °F /  8.9 °C 29.86 in /  1011.1 hPa West 1.0 mph /  1.6 km/h 4.0 mph /  6.4 km/h 64 % 0.00 in /  0 mm WeatherDisplay:10.37 W/m2 FEW
03:19 60.1 °F /  15.6 °C 47.9 °F /  8.8 °C 29.86 in /  1011.1 hPa Calm   5.0 mph /  8 km/h 64 % 0.00 in /  0 mm WeatherDisplay:10.37 W/m2 FEW
03:24 60.0 °F /  15.6 °C 47.8 °F /  8.8 °C 29.87 in /  1011.4 hPa NW 1.0 mph /  1.6 km/h 4.0 mph /  6.4 km/h 64 % 0.00 in /  0 mm WeatherDisplay:10.37 W/m2 FEW
03:29 59.9 °F /  15.5 °C 48.1 °F /  8.9 °C 29.87 in /  1011.4 hPa Calm   3.0 mph /  4.8 km/h 65 % 0.00 in /  0 mm WeatherDisplay:10.37 W/m2 FEW
03:34 59.8 °F /  15.4 °C 48.0 °F /  8.9 °C 29.87 in /  1011.4 hPa Calm   3.0 mph /  4.8 km/h 65 % 0.00 in /  0 mm WeatherDisplay:10.37 W/m2 FEW
03:39 59.8 °F /  15.4 °C 48.0 °F /  8.9 °C 29.87 in /  1011.4 hPa NNW 1.0 mph /  1.6 km/h 2.0 mph /  3.2 km/h 65 % 0.00 in /  0 mm WeatherDisplay:10.37 W/m2 FEW
03:44 59.7 °F /  15.4 °C 48.3 °F /  9.1 °C 29.87 in /  1011.4 hPa Calm     66 % 0.00 in /  0 mm WeatherDisplay:10.37 W/m2 FEW
03:49 59.7 °F /  15.4 °C 48.3 °F /  9.1 °C 29.87 in /  1011.4 hPa Calm   1.0 mph /  1.6 km/h 66 % 0.00 in /  0 mm WeatherDisplay:10.37 W/m2 FEW
03:54 59.6 °F /  15.3 °C 48.6 °F /  9.2 °C 29.87 in /  1011.4 hPa Calm     67 % 0.00 in /  0 mm WeatherDisplay:10.37 W/m2 FEW
03:59 59.6 °F /  15.3 °C 48.6 °F /  9.2 °C 29.87 in /  1011.4 hPa Calm     67 % 0.00 in /  0 mm WeatherDisplay:10.37 W/m2 FEW
04:04 59.5 °F /  15.3 °C 48.5 °F /  9.2 °C 29.87 in /  1011.4 hPa Calm     67 % 0.00 in /  0 mm WeatherDisplay:10.37 W/m2 FEW
04:09 59.4 °F /  15.2 °C 48.4 °F /  9.1 °C 29.87 in /  1011.4 hPa Calm     67 % 0.00 in /  0 mm WeatherDisplay:10.37 W/m2 FEW
04:14 59.3 °F /  15.2 °C 48.7 °F /  9.3 °C 29.87 in /  1011.4 hPa Calm     68 % 0.00 in /  0 mm WeatherDisplay:10.37 W/m2 FEW
04:19 59.2 °F /  15.1 °C 49.0 °F /  9.4 °C 29.88 in /  1011.7 hPa Calm     69 % 0.00 in /  0 mm WeatherDisplay:10.37 W/m2 FEW
04:24 59.0 °F /  15 °C 48.8 °F /  9.3 °C 29.88 in /  1011.7 hPa Calm     69 % 0.00 in /  0 mm WeatherDisplay:10.37 W/m2 FEW
04:29 58.8 °F /  14.9 °C 48.7 °F /  9.3 °C 29.88 in /  1011.7 hPa Calm     69 % 0.00 in /  0 mm WeatherDisplay:10.37 W/m2 FEW
04:34 58.7 °F /  14.8 °C 48.9 °F /  9.4 °C 29.88 in /  1011.7 hPa Calm     70 % 0.00 in /  0 mm WeatherDisplay:10.37 W/m2 FEW
04:39 58.6 °F /  14.8 °C 49.2 °F /  9.6 °C 29.88 in /  1011.7 hPa Calm     71 % 0.00 in /  0 mm WeatherDisplay:10.37 W/m2 FEW
04:44 58.4 °F /  14.7 °C 49.1 °F /  9.5 °C 29.88 in /  1011.7 hPa Calm     71 % 0.00 in /  0 mm WeatherDisplay:10.37 W/m2 FEW
04:49 58.3 °F /  14.6 °C 49.3 °F /  9.6 °C 29.88 in /  1011.7 hPa Calm     72 % 0.00 in /  0 mm WeatherDisplay:10.37 W/m2 FEW
04:54 58.2 °F /  14.6 °C 49.6 °F /  9.8 °C 29.88 in /  1011.7 hPa Calm     73 % 0.00 in /  0 mm WeatherDisplay:10.37 W/m2 FEW
04:59 58.1 °F /  14.5 °C 49.9 °F /  9.9 °C 29.88 in /  1011.7 hPa Calm     74 % 0.00 in /  0 mm WeatherDisplay:10.37 W/m2 FEW
05:04 58.0 °F /  14.4 °C 49.8 °F /  9.9 °C 29.89 in /  1012.1 hPa Calm     74 % 0.00 in /  0 mm WeatherDisplay:10.37 W/m2 FEW
05:09 57.9 °F /  14.4 °C 49.7 °F /  9.8 °C 29.89 in /  1012.1 hPa Calm     74 % 0.00 in /  0 mm WeatherDisplay:10.37 W/m2 FEW
05:14 57.8 °F /  14.3 °C 49.9 °F /  9.9 °C 29.90 in /  1012.4 hPa Calm     75 % 0.00 in /  0 mm WeatherDisplay:10.37 W/m2 FEW
05:19 57.7 °F /  14.3 °C 49.8 °F /  9.9 °C 29.90 in /  1012.4 hPa Calm   1.0 mph /  1.6 km/h 75 % 0.00 in /  0 mm WeatherDisplay:10.37 W/m2 FEW
05:24 57.6 °F /  14.2 °C 49.7 °F /  9.8 °C 29.90 in /  1012.4 hPa Calm   1.0 mph /  1.6 km/h 75 % 0.00 in /  0 mm WeatherDisplay:10.37 W/m2 FEW
05:29 57.5 °F /  14.2 °C 49.6 °F /  9.8 °C 29.91 in /  1012.8 hPa Calm   1.0 mph /  1.6 km/h 75 % 0.00 in /  0 mm WeatherDisplay:10.37 W/m2 FEW
05:34 57.5 °F /  14.2 °C 48.9 °F /  9.4 °C 29.91 in /  1012.8 hPa Calm   1.0 mph /  1.6 km/h 73 % 0.00 in /  0 mm WeatherDisplay:10.37 W/m2 FEW
05:39 57.5 °F /  14.2 °C 48.5 °F /  9.2 °C 29.91 in /  1012.8 hPa Calm   2.0 mph /  3.2 km/h 72 % 0.00 in /  0 mm WeatherDisplay:10.37 W/m2 FEW
05:44 57.6 °F /  14.2 °C 48.3 °F /  9.1 °C 29.91 in /  1012.8 hPa Calm   2.0 mph /  3.2 km/h 71 % 0.00 in /  0 mm WeatherDisplay:10.37 W/m2 FEW
05:49 57.7 °F /  14.3 °C 48.3 °F /  9.1 °C 29.91 in /  1012.8 hPa Calm     71 % 0.00 in /  0 mm WeatherDisplay:10.37 W/m2 FEW
05:54 57.7 °F /  14.3 °C 48.4 °F /  9.1 °C 29.91 in /  1012.8 hPa Calm     71 % 0.00 in /  0 mm WeatherDisplay:10.37 W/m2 FEW
05:59 57.7 °F /  14.3 °C 48.4 °F /  9.1 °C 29.92 in /  1013.1 hPa Calm     71 % 0.00 in /  0 mm WeatherDisplay:10.37 W/m2 FEW
06:04 57.8 °F /  14.3 °C 48.8 °F /  9.3 °C 29.92 in /  1013.1 hPa Calm     72 % 0.00 in /  0 mm WeatherDisplay:10.37 W/m2 FEW
06:09 57.8 °F /  14.3 °C 48.8 °F /  9.3 °C 29.92 in /  1013.1 hPa Calm     72 % 0.00 in /  0 mm WeatherDisplay:10.37 W/m2 FEW
06:14 57.8 °F /  14.3 °C 48.8 °F /  9.3 °C 29.93 in /  1013.4 hPa Calm     72 % 0.00 in /  0 mm WeatherDisplay:10.37 W/m2 FEW
06:19 57.7 °F /  14.3 °C 48.4 °F /  9.1 °C 29.93 in /  1013.4 hPa Calm   1.0 mph /  1.6 km/h 71 % 0.00 in /  0 mm WeatherDisplay:10.37 W/m2 FEW
06:24 57.7 °F /  14.3 °C 48.7 °F /  9.3 °C 29.93 in /  1013.4 hPa Calm   2.0 mph /  3.2 km/h 72 % 0.00 in /  0 mm WeatherDisplay:10.37 W/m2 FEW
06:29 57.6 °F /  14.2 °C 48.3 °F /  9.1 °C 29.94 in /  1013.8 hPa Calm   2.0 mph /  3.2 km/h 71 % 0.00 in /  0 mm WeatherDisplay:10.37 W/m2 FEW
06:34 57.5 °F /  14.2 °C 47.8 °F /  8.8 °C 29.94 in /  1013.8 hPa Calm   1.0 mph /  1.6 km/h 70 % 0.00 in /  0 mm WeatherDisplay:10.37 W/m2 FEW
06:39 57.4 °F /  14.1 °C 47.3 °F /  8.5 °C 29.95 in /  1014.1 hPa Calm   1.0 mph /  1.6 km/h 69 % 0.00 in /  0 mm WeatherDisplay:10.37 W/m2 FEW
06:44 57.4 °F /  14.1 °C 47.7 °F /  8.7 °C 29.95 in /  1014.1 hPa Calm     70 % 0.00 in /  0 mm WeatherDisplay:10.37 W/m2 FEW
06:49 57.3 °F /  14.1 °C 46.8 °F /  8.2 °C 29.95 in /  1014.1 hPa Calm   2.0 mph /  3.2 km/h 68 % 0.00 in /  0 mm WeatherDisplay:10.37 W/m2 FEW
06:54 57.2 °F /  14 °C 46.7 °F /  8.2 °C 29.96 in /  1014.4 hPa Calm   1.0 mph /  1.6 km/h 68 % 0.00 in /  0 mm WeatherDisplay:10.37 W/m2 FEW
06:59 57.2 °F /  14 °C 46.7 °F /  8.2 °C 29.96 in /  1014.4 hPa Calm   2.0 mph /  3.2 km/h 68 % 0.00 in /  0 mm WeatherDisplay:10.37 W/m2 FEW
07:04 57.0 °F /  13.9 °C 46.1 °F /  7.8 °C 29.96 in /  1014.4 hPa Calm   3.0 mph /  4.8 km/h 67 % 0.00 in /  0 mm WeatherDisplay:10.37 W/m2 FEW
07:09 56.8 °F /  13.8 °C 46.0 °F /  7.8 °C 29.96 in /  1014.4 hPa Calm   6.0 mph /  9.7 km/h 67 % 0.00 in /  0 mm WeatherDisplay:10.37 W/m2 FEW
07:14 56.7 °F /  13.7 °C 45.8 °F /  7.7 °C 29.97 in /  1014.8 hPa Calm   2.0 mph /  3.2 km/h 67 % 0.00 in /  0 mm WeatherDisplay:10.37 W/m2 FEW
07:19 56.5 °F /  13.6 °C 45.7 °F /  7.6 °C 29.97 in /  1014.8 hPa NE 1.0 mph /  1.6 km/h 7.0 mph /  11.3 km/h 67 % 0.00 in /  0 mm WeatherDisplay:10.37 W/m2 FEW
07:24 56.3 °F /  13.5 °C 45.1 °F /  7.3 °C 29.97 in /  1014.8 hPa Calm   3.0 mph /  4.8 km/h 66 % 0.00 in /  0 mm WeatherDisplay:10.37 W/m2 FEW
07:29 56.2 °F /  13.4 °C 45.8 °F /  7.7 °C 29.97 in /  1014.8 hPa Calm   2.0 mph /  3.2 km/h 68 % 0.00 in /  0 mm WeatherDisplay:10.37 W/m2 FEW
07:34 56.0 °F /  13.3 °C 45.2 °F /  7.3 °C 29.98 in /  1015.1 hPa Calm   2.0 mph /  3.2 km/h 67 % 0.00 in /  0 mm WeatherDisplay:10.37 W/m2 FEW
07:39 55.8 °F /  13.2 °C 45.0 °F /  7.2 °C 29.98 in /  1015.1 hPa Calm   3.0 mph /  4.8 km/h 67 % 0.00 in /  0 mm WeatherDisplay:10.37 W/m2 FEW
07:44 55.6 °F /  13.1 °C 44.8 °F /  7.1 °C 29.98 in /  1015.1 hPa Calm   1.0 mph /  1.6 km/h 67 % 0.00 in /  0 mm WeatherDisplay:10.37 W/m2 FEW
07:49 55.5 °F /  13.1 °C 44.7 °F /  7.1 °C 29.98 in /  1015.1 hPa Calm   1.0 mph /  1.6 km/h 67 % 0.00 in /  0 mm WeatherDisplay:10.37 W/m2 FEW
07:54 55.4 °F /  13 °C 44.6 °F /  7 °C 29.98 in /  1015.1 hPa Calm     67 % 0.00 in /  0 mm WeatherDisplay:10.37 W/m2 FEW
07:59 55.3 °F /  12.9 °C 44.1 °F /  6.7 °C 29.99 in /  1015.5 hPa Calm   2.0 mph /  3.2 km/h 66 % 0.00 in /  0 mm WeatherDisplay:10.37 W/m2 FEW
08:04 55.0 °F /  12.8 °C 43.1 °F /  6.2 °C 29.99 in /  1015.5 hPa ENE 1.0 mph /  1.6 km/h 7.0 mph /  11.3 km/h 64 % 0.00 in /  0 mm WeatherDisplay:10.37 W/m2 FEW
08:09 54.9 °F /  12.7 °C 42.9 °F /  6.1 °C 29.99 in /  1015.5 hPa Calm   3.0 mph /  4.8 km/h 64 % 0.00 in /  0 mm WeatherDisplay:10.37 W/m2 FEW
08:14 54.7 °F /  12.6 °C 42.8 °F /  6 °C 29.99 in /  1015.5 hPa ENE 1.0 mph /  1.6 km/h 5.0 mph /  8 km/h 64 % 0.00 in /  0 mm WeatherDisplay:10.37 W/m2 FEW
08:19 54.6 °F /  12.6 °C 42.7 °F /  5.9 °C 30.00 in /  1015.8 hPa Calm   2.0 mph /  3.2 km/h 64 % 0.00 in /  0 mm WeatherDisplay:10.37 W/m2 FEW
08:24 54.5 °F /  12.5 °C 43.0 °F /  6.1 °C 30.00 in /  1015.8 hPa Calm   1.0 mph /  1.6 km/h 65 % 0.00 in /  0 mm WeatherDisplay:10.37 W/m2 FEW
08:29 54.5 °F /  12.5 °C 42.9 °F /  6.1 °C 30.00 in /  1015.8 hPa Calm   1.0 mph /  1.6 km/h 65 % 0.00 in /  0 mm WeatherDisplay:10.37 W/m2 FEW
08:39 54.4 °F /  12.4 °C 43.3 °F /  6.3 °C 30.00 in /  1015.8 hPa Calm     66 % 0.00 in /  0 mm WeatherDisplay:10.37 W/m2 FEW
08:44 54.4 °F /  12.4 °C 43.3 °F /  6.3 °C 30.00 in /  1015.8 hPa Calm     66 % 0.00 in /  0 mm WeatherDisplay:10.37 W/m2 FEW
08:49 54.4 °F /  12.4 °C 43.3 °F /  6.3 °C 30.01 in /  1016.1 hPa Calm     66 % 0.00 in /  0 mm WeatherDisplay:10.37 W/m2 FEW
08:54 54.4 °F /  12.4 °C 43.3 °F /  6.3 °C 30.01 in /  1016.1 hPa Calm   1.0 mph /  1.6 km/h 66 % 0.00 in /  0 mm WeatherDisplay:10.37 W/m2 FEW
08:59 54.5 °F /  12.5 °C 43.4 °F /  6.3 °C 30.01 in /  1016.1 hPa Calm   1.0 mph /  1.6 km/h 66 % 0.00 in /  0 mm WeatherDisplay:10.37 W/m2 FEW
09:04 54.5 °F /  12.5 °C 43.4 °F /  6.3 °C 30.01 in /  1016.1 hPa East 1.0 mph /  1.6 km/h 4.0 mph /  6.4 km/h 66 % 0.00 in /  0 mm WeatherDisplay:10.37 W/m2 FEW
09:09 54.6 °F /  12.6 °C 43.8 °F /  6.6 °C 30.01 in /  1016.1 hPa Calm   3.0 mph /  4.8 km/h 67 % 0.00 in /  0 mm WeatherDisplay:10.37 W/m2 FEW
09:14 54.6 °F /  12.6 °C 43.5 °F /  6.4 °C 30.01 in /  1016.1 hPa Calm   4.0 mph /  6.4 km/h 66 % 0.00 in /  0 mm WeatherDisplay:10.37 W/m2 FEW
09:19 54.6 °F /  12.6 °C 43.5 °F /  6.4 °C 30.01 in /  1016.1 hPa Calm   1.0 mph /  1.6 km/h 66 % 0.00 in /  0 mm WeatherDisplay:10.37 W/m2 FEW
09:24 54.6 °F /  12.6 °C 43.5 °F /  6.4 °C 30.01 in /  1016.1 hPa Calm   2.0 mph /  3.2 km/h 66 % 0.00 in /  0 mm WeatherDisplay:10.37 W/m2 FEW
09:29 54.7 °F /  12.6 °C 44.3 °F /  6.8 °C 30.02 in /  1016.5 hPa Calm   3.0 mph /  4.8 km/h 68 % 0.00 in /  0 mm WeatherDisplay:10.37 W/m2 FEW
09:34 54.9 °F /  12.7 °C 43.7 °F /  6.5 °C 30.02 in /  1016.5 hPa Calm   3.0 mph /  4.8 km/h 66 % 0.00 in /  0 mm WeatherDisplay:10.37 W/m2 FEW
09:39 55.0 °F /  12.8 °C 43.4 °F /  6.3 °C 30.02 in /  1016.5 hPa Calm   1.0 mph /  1.6 km/h 65 % 0.00 in /  0 mm WeatherDisplay:10.37 W/m2 FEW
09:44 55.1 °F /  12.8 °C 43.5 °F /  6.4 °C 30.02 in /  1016.5 hPa Calm   3.0 mph /  4.8 km/h 65 % 0.00 in /  0 mm WeatherDisplay:10.37 W/m2 FEW
09:49 55.3 °F /  12.9 °C 44.1 °F /  6.7 °C 30.02 in /  1016.5 hPa Calm     66 % 0.00 in /  0 mm WeatherDisplay:10.37 W/m2 FEW
09:54 55.7 °F /  13.2 °C 43.7 °F /  6.5 °C 30.02 in /  1016.5 hPa Calm   4.0 mph /  6.4 km/h 64 % 0.00 in /  0 mm WeatherDisplay:10.37 W/m2 FEW
09:59 56.2 °F /  13.4 °C 44.1 °F /  6.7 °C 30.03 in /  1016.8 hPa Calm   3.0 mph /  4.8 km/h 64 % 0.00 in /  0 mm WeatherDisplay:10.37 W/m2 FEW
10:04 56.7 °F /  13.7 °C 43.8 °F /  6.6 °C 30.03 in /  1016.8 hPa Calm   5.0 mph /  8 km/h 62 % 0.00 in /  0 mm WeatherDisplay:10.37 W/m2 FEW
10:09 57.2 °F /  14 °C 43.4 °F /  6.3 °C 30.03 in /  1016.8 hPa Calm   6.0 mph /  9.7 km/h 60 % 0.00 in /  0 mm WeatherDisplay:10.37 W/m2 FEW
10:14 57.7 °F /  14.3 °C 43.9 °F /  6.6 °C 30.03 in /  1016.8 hPa Calm   4.0 mph /  6.4 km/h 60 % 0.00 in /  0 mm WeatherDisplay:10.37 W/m2 FEW
10:19 58.4 °F /  14.7 °C 44.1 °F /  6.7 °C 30.03 in /  1016.8 hPa Calm   5.0 mph /  8 km/h 59 % 0.00 in /  0 mm WeatherDisplay:10.37 W/m2 FEW
10:24 58.9 °F /  14.9 °C 44.6 °F /  7 °C 30.03 in /  1016.8 hPa Calm   1.0 mph /  1.6 km/h 59 % 0.00 in /  0 mm WeatherDisplay:10.37 W/m2 FEW
10:29 59.3 °F /  15.2 °C 44.5 °F /  6.9 °C 30.03 in /  1016.8 hPa Calm   1.0 mph /  1.6 km/h 58 % 0.00 in /  0 mm WeatherDisplay:10.37 W/m2 FEW
10:34 59.7 °F /  15.4 °C 44.4 °F /  6.9 °C 30.04 in /  1017.2 hPa Calm   5.0 mph /  8 km/h 57 % 0.00 in /  0 mm WeatherDisplay:10.37 W/m2 FEW
10:39 59.8 °F /  15.4 °C 44.0 °F /  6.7 °C 30.04 in /  1017.2 hPa Calm   3.0 mph /  4.8 km/h 56 % 0.00 in /  0 mm WeatherDisplay:10.37 W/m2 FEW
10:44 59.8 °F /  15.4 °C 44.1 °F /  6.7 °C 30.04 in /  1017.2 hPa Calm   2.0 mph /  3.2 km/h 56 % 0.00 in /  0 mm WeatherDisplay:10.37 W/m2 FEW
10:49 60.3 °F /  15.7 °C 44.6 °F /  7 °C 30.04 in /  1017.2 hPa ENE 2.0 mph /  3.2 km/h 5.0 mph /  8 km/h 56 % 0.00 in /  0 mm WeatherDisplay:10.37 W/m2 FEW
10:54 60.4 °F /  15.8 °C 43.2 °F /  6.2 °C 30.04 in /  1017.2 hPa ESE 2.0 mph /  3.2 km/h 7.0 mph /  11.3 km/h 53 % 0.00 in /  0 mm WeatherDisplay:10.37 W/m2 FEW
10:59 60.7 °F /  15.9 °C 44.4 °F /  6.9 °C 30.04 in /  1017.2 hPa Calm   2.0 mph /  3.2 km/h 55 % 0.00 in /  0 mm WeatherDisplay:10.37 W/m2 FEW
11:04 61.1 °F /  16.2 °C 44.8 °F /  7.1 °C 30.04 in /  1017.2 hPa Calm   4.0 mph /  6.4 km/h 55 % 0.00 in /  0 mm WeatherDisplay:10.37 W/m2 FEW
11:09 61.4 °F /  16.3 °C 44.1 °F /  6.7 °C 30.04 in /  1017.2 hPa Calm   3.0 mph /  4.8 km/h 53 % 0.00 in /  0 mm WeatherDisplay:10.37 W/m2 FEW
11:14 61.5 °F /  16.4 °C 44.2 °F /  6.8 °C 30.04 in /  1017.2 hPa Calm   6.0 mph /  9.7 km/h 53 % 0.00 in /  0 mm WeatherDisplay:10.37 W/m2 FEW
11:19 61.9 °F /  16.6 °C 44.5 °F /  6.9 °C 30.04 in /  1017.2 hPa Calm   3.0 mph /  4.8 km/h 53 % 0.00 in /  0 mm WeatherDisplay:10.37 W/m2 FEW
11:24 61.8 °F /  16.6 °C 43.0 °F /  6.1 °C 30.04 in /  1017.2 hPa ESE 1.0 mph /  1.6 km/h 5.0 mph /  8 km/h 50 % 0.00 in /  0 mm WeatherDisplay:10.37 W/m2 FEW
11:29 61.7 °F /  16.5 °C 43.9 °F /  6.6 °C 30.04 in /  1017.2 hPa Calm   4.0 mph /  6.4 km/h 52 % 0.00 in /  0 mm WeatherDisplay:10.37 W/m2 FEW
11:34 61.6 °F /  16.4 °C 43.3 °F /  6.3 °C 30.04 in /  1017.2 hPa Calm   3.0 mph /  4.8 km/h 51 % 0.00 in /  0 mm WeatherDisplay:10.37 W/m2 FEW
11:39 61.4 °F /  16.3 °C 42.6 °F /  5.9 °C 30.05 in /  1017.5 hPa Calm   4.0 mph /  6.4 km/h 50 % 0.00 in /  0 mm WeatherDisplay:10.37 W/m2 FEW
11:44 61.1 °F /  16.2 °C 42.8 °F /  6 °C 30.05 in /  1017.5 hPa Calm   5.0 mph /  8 km/h 51 % 0.00 in /  0 mm WeatherDisplay:10.37 W/m2 FEW
11:49 60.7 °F /  15.9 °C 42.0 °F /  5.6 °C 30.05 in /  1017.5 hPa Calm   2.0 mph /  3.2 km/h 50 % 0.00 in /  0 mm WeatherDisplay:10.37 W/m2 FEW
11:54 60.5 °F /  15.8 °C 43.3 °F /  6.3 °C 30.05 in /  1017.5 hPa Calm   1.0 mph /  1.6 km/h 53 % 0.00 in /  0 mm WeatherDisplay:10.37 W/m2 FEW
11:59 60.3 °F /  15.7 °C 43.1 °F /  6.2 °C 30.05 in /  1017.5 hPa Calm   1.0 mph /  1.6 km/h 53 % 0.00 in /  0 mm WeatherDisplay:10.37 W/m2 FEW
12:04 60.3 °F /  15.7 °C 43.6 °F /  6.4 °C 30.05 in /  1017.5 hPa Calm   5.0 mph /  8 km/h 54 % 0.00 in /  0 mm WeatherDisplay:10.37 W/m2 FEW
12:09 60.1 °F /  15.6 °C 41.9 °F /  5.5 °C 30.05 in /  1017.5 hPa Calm   5.0 mph /  8 km/h 51 % 0.00 in /  0 mm WeatherDisplay:10.37 W/m2 FEW
12:14 59.9 °F /  15.5 °C 42.2 °F /  5.7 °C 30.05 in /  1017.5 hPa SE 1.0 mph /  1.6 km/h 6.0 mph /  9.7 km/h 52 % 0.00 in /  0 mm WeatherDisplay:10.37 W/m2 FEW
12:19 59.7 °F /  15.4 °C 41.5 °F /  5.3 °C 30.05 in /  1017.5 hPa Calm   2.0 mph /  3.2 km/h 51 % 0.00 in /  0 mm WeatherDisplay:10.37 W/m2 FEW
12:24 59.7 °F /  15.4 °C 43.1 °F /  6.2 °C 30.05 in /  1017.5 hPa Calm   1.0 mph /  1.6 km/h 54 % 0.00 in /  0 mm WeatherDisplay:10.37 W/m2 FEW
12:29 60.3 °F /  15.7 °C 42.6 °F /  5.9 °C 30.05 in /  1017.5 hPa Calm   1.0 mph /  1.6 km/h 52 % 0.00 in /  0 mm WeatherDisplay:10.37 W/m2 FEW
12:34 60.4 °F /  15.8 °C 41.7 °F /  5.4 °C 30.05 in /  1017.5 hPa Calm   2.0 mph /  3.2 km/h 50 % 0.00 in /  0 mm WeatherDisplay:10.37 W/m2 FEW
12:39 60.5 °F /  15.8 °C 43.3 °F /  6.3 °C 30.05 in /  1017.5 hPa Calm     53 % 0.00 in /  0 mm WeatherDisplay:10.37 W/m2 FEW
12:44 60.7 °F /  15.9 °C 42.5 °F /  5.8 °C 30.05 in /  1017.5 hPa East 1.0 mph /  1.6 km/h 3.0 mph /  4.8 km/h 51 % 0.00 in /  0 mm WeatherDisplay:10.37 W/m2 FEW
12:49 60.9 °F /  16.1 °C 43.6 °F /  6.4 °C 30.05 in /  1017.5 hPa Calm   2.0 mph /  3.2 km/h 53 % 0.00 in /  0 mm WeatherDisplay:10.37 W/m2 FEW
12:54 61.1 °F /  16.2 °C 43.4 °F /  6.3 °C 30.05 in /  1017.5 hPa Calm   2.0 mph /  3.2 km/h 52 % 0.00 in /  0 mm WeatherDisplay:10.37 W/m2 FEW
12:59 61.3 °F /  16.3 °C 43.0 °F /  6.1 °C 30.05 in /  1017.5 hPa Calm   1.0 mph /  1.6 km/h 51 % 0.00 in /  0 mm WeatherDisplay:10.37 W/m2 FEW
13:04 61.5 °F /  16.4 °C 43.2 °F /  6.2 °C 30.05 in /  1017.5 hPa Calm     51 % 0.00 in /  0 mm WeatherDisplay:10.37 W/m2 FEW
13:09 61.7 °F /  16.5 °C 42.9 °F /  6.1 °C 30.05 in /  1017.5 hPa Calm   1.0 mph /  1.6 km/h 50 % 0.00 in /  0 mm WeatherDisplay:10.37 W/m2 FEW
13:14 61.9 °F /  16.6 °C 42.5 °F /  5.8 °C 30.05 in /  1017.5 hPa Calm   1.0 mph /  1.6 km/h 49 % 0.00 in /  0 mm WeatherDisplay:10.37 W/m2 FEW
13:19 61.9 °F /  16.6 °C 41.9 °F /  5.5 °C 30.05 in /  1017.5 hPa Calm   3.0 mph /  4.8 km/h 48 % 0.00 in /  0 mm WeatherDisplay:10.37 W/m2 FEW
13:24 61.8 °F /  16.6 °C 43.0 °F /  6.1 °C 30.05 in /  1017.5 hPa Calm   2.0 mph /  3.2 km/h 50 % 0.00 in /  0 mm WeatherDisplay:10.37 W/m2 FEW
13:29 61.8 °F /  16.6 °C 42.4 °F /  5.8 °C 30.05 in /  1017.5 hPa Calm     49 % 0.00 in /  0 mm WeatherDisplay:10.37 W/m2 FEW
13:34 61.9 °F /  16.6 °C 42.5 °F /  5.8 °C 30.05 in /  1017.5 hPa Calm   4.0 mph /  6.4 km/h 49 % 0.00 in /  0 mm WeatherDisplay:10.37 W/m2 FEW
13:39 62.2 °F /  16.8 °C 44.4 °F /  6.9 °C 30.04 in /  1017.2 hPa Calm   3.0 mph /  4.8 km/h 52 % 0.00 in /  0 mm WeatherDisplay:10.37 W/m2 FEW
13:44 62.8 °F /  17.1 °C 43.8 °F /  6.6 °C 30.04 in /  1017.2 hPa Calm   3.0 mph /  4.8 km/h 50 % 0.00 in /  0 mm WeatherDisplay:10.37 W/m2 FEW
13:49 63.3 °F /  17.4 °C 43.2 °F /  6.2 °C 30.04 in /  1017.2 hPa Calm   1.0 mph /  1.6 km/h 48 % 0.00 in /  0 mm WeatherDisplay:10.37 W/m2 FEW
13:54 63.7 °F /  17.6 °C 43.6 °F /  6.4 °C 30.04 in /  1017.2 hPa Calm   5.0 mph /  8 km/h 48 % 0.00 in /  0 mm WeatherDisplay:10.37 W/m2 FEW
13:59 64.0 °F /  17.8 °C 43.4 °F /  6.3 °C 30.04 in /  1017.2 hPa Calm   3.0 mph /  4.8 km/h 47 % 0.00 in /  0 mm WeatherDisplay:10.37 W/m2 FEW
14:04 64.1 °F /  17.8 °C 43.4 °F /  6.3 °C 30.04 in /  1017.2 hPa Calm   1.0 mph /  1.6 km/h 47 % 0.00 in /  0 mm WeatherDisplay:10.37 W/m2 FEW
14:09 64.1 °F /  17.8 °C 42.9 °F /  6.1 °C 30.04 in /  1017.2 hPa East 1.0 mph /  1.6 km/h 4.0 mph /  6.4 km/h 46 % 0.00 in /  0 mm WeatherDisplay:10.37 W/m2 FEW
14:14 64.0 °F /  17.8 °C 43.4 °F /  6.3 °C 30.04 in /  1017.2 hPa Calm   2.0 mph /  3.2 km/h 47 % 0.00 in /  0 mm WeatherDisplay:10.37 W/m2 FEW
14:19 63.9 °F /  17.7 °C 43.8 °F /  6.6 °C 30.04 in /  1017.2 hPa Calm   2.0 mph /  3.2 km/h 48 % 0.00 in /  0 mm WeatherDisplay:10.37 W/m2 FEW
14:24 64.2 °F /  17.9 °C 44.6 °F /  7 °C 30.04 in /  1017.2 hPa Calm   1.0 mph /  1.6 km/h 49 % 0.00 in /  0 mm WeatherDisplay:10.37 W/m2 FEW
14:29 64.6 °F /  18.1 °C 43.9 °F /  6.6 °C 30.04 in /  1017.2 hPa Calm   1.0 mph /  1.6 km/h 47 % 0.00 in /  0 mm WeatherDisplay:10.37 W/m2 FEW
14:34 64.9 °F /  18.3 °C 44.2 °F /  6.8 °C 30.04 in /  1017.2 hPa Calm   1.0 mph /  1.6 km/h 47 % 0.00 in /  0 mm WeatherDisplay:10.37 W/m2 FEW
14:39 65.3 °F /  18.5 °C 44.0 °F /  6.7 °C 30.04 in /  1017.2 hPa Calm   1.0 mph /  1.6 km/h 46 % 0.00 in /  0 mm WeatherDisplay:10.37 W/m2 FEW
14:44 65.4 °F /  18.6 °C 44.1 °F /  6.7 °C 30.04 in /  1017.2 hPa Calm   3.0 mph /  4.8 km/h 46 % 0.00 in /  0 mm WeatherDisplay:10.37 W/m2 FEW
14:49 65.5 °F /  18.6 °C 44.1 °F /  6.7 °C 30.04 in /  1017.2 hPa Calm     46 % 0.00 in /  0 mm WeatherDisplay:10.37 W/m2 FEW
14:54 65.3 °F /  18.5 °C 43.4 °F /  6.3 °C 30.04 in /  1017.2 hPa Calm     45 % 0.00 in /  0 mm WeatherDisplay:10.37 W/m2 FEW
14:59 65.1 °F /  18.4 °C 43.8 °F /  6.6 °C 30.04 in /  1017.2 hPa Calm     46 % 0.00 in /  0 mm WeatherDisplay:10.37 W/m2 FEW
15:04 64.8 °F /  18.2 °C 43.5 °F /  6.4 °C 30.04 in /  1017.2 hPa Calm     46 % 0.00 in /  0 mm WeatherDisplay:10.37 W/m2 FEW
15:09 64.6 °F /  18.1 °C 43.9 °F /  6.6 °C 30.04 in /  1017.2 hPa Calm     47 % 0.00 in /  0 mm WeatherDisplay:10.37 W/m2 FEW
15:14 64.6 °F /  18.1 °C 43.3 °F /  6.3 °C 30.04 in /  1017.2 hPa Calm   3.0 mph /  4.8 km/h 46 % 0.00 in /  0 mm WeatherDisplay:10.37 W/m2 FEW
15:19 64.7 °F /  18.2 °C 44.6 °F /  7 °C 30.04 in /  1017.2 hPa Calm   2.0 mph /  3.2 km/h 48 % 0.00 in /  0 mm WeatherDisplay:10.37 W/m2 FEW
15:24 64.9 °F /  18.3 °C 43.6 °F /  6.4 °C 30.04 in /  1017.2 hPa Calm   2.0 mph /  3.2 km/h 46 % 0.00 in /  0 mm WeatherDisplay:10.37 W/m2 FEW
15:29 65.4 °F /  18.6 °C 45.2 °F /  7.3 °C 30.04 in /  1017.2 hPa Calm   1.0 mph /  1.6 km/h 48 % 0.00 in /  0 mm WeatherDisplay:10.37 W/m2 FEW
15:34 65.8 °F /  18.8 °C 44.4 °F /  6.9 °C 30.04 in /  1017.2 hPa Calm   3.0 mph /  4.8 km/h 46 % 0.00 in /  0 mm WeatherDisplay:10.37 W/m2 FEW
15:39 66.0 °F /  18.9 °C 43.5 °F /  6.4 °C 30.04 in /  1017.2 hPa WNW 1.0 mph /  1.6 km/h 3.0 mph /  4.8 km/h 44 % 0.00 in /  0 mm WeatherDisplay:10.37 W/m2 FEW
15:44 66.1 °F /  18.9 °C 44.2 °F /  6.8 °C 30.04 in /  1017.2 hPa Calm   3.0 mph /  4.8 km/h 45 % 0.00 in /  0 mm WeatherDisplay:10.37 W/m2 FEW
15:49 66.4 °F /  19.1 °C 45.0 °F /  7.2 °C 30.04 in /  1017.2 hPa NE 1.0 mph /  1.6 km/h 5.0 mph /  8 km/h 46 % 0.00 in /  0 mm WeatherDisplay:10.37 W/m2 FEW
15:54 66.6 °F /  19.2 °C 40.2 °F /  4.6 °C 30.04 in /  1017.2 hPa North 3.0 mph /  4.8 km/h 8.0 mph /  12.9 km/h 38 % 0.00 in /  0 mm WeatherDisplay:10.37 W/m2 FEW
15:59 66.6 °F /  19.2 °C 35.8 °F /  2.1 °C 30.04 in /  1017.2 hPa North 1.0 mph /  1.6 km/h 9.0 mph /  14.5 km/h 32 % 0.00 in /  0 mm WeatherDisplay:10.37 W/m2 FEW
16:04 66.7 °F /  19.3 °C 34.3 °F /  1.3 °C 30.04 in /  1017.2 hPa North 2.0 mph /  3.2 km/h 8.0 mph /  12.9 km/h 30 % 0.00 in /  0 mm WeatherDisplay:10.37 W/m2 FEW
16:09 66.9 °F /  19.4 °C 34.4 °F /  1.3 °C 30.04 in /  1017.2 hPa NNW 5.0 mph /  8 km/h 8.0 mph /  12.9 km/h 30 % 0.00 in /  0 mm WeatherDisplay:10.37 W/m2 FEW
16:19 67.0 °F /  19.4 °C 33.7 °F /  0.9 °C 30.04 in /  1017.2 hPa NW 2.0 mph /  3.2 km/h 6.0 mph /  9.7 km/h 29 % 0.00 in /  0 mm WeatherDisplay:10.37 W/m2 FEW
16:24 67.1 °F /  19.5 °C 32.9 °F /  0.5 °C 30.04 in /  1017.2 hPa NW 2.0 mph /  3.2 km/h 7.0 mph /  11.3 km/h 28 % 0.00 in /  0 mm WeatherDisplay:10.37 W/m2 FEW
16:29 67.3 °F /  19.6 °C 33.1 °F /  0.6 °C 30.04 in /  1017.2 hPa NW 3.0 mph /  4.8 km/h 7.0 mph /  11.3 km/h 28 % 0.00 in /  0 mm WeatherDisplay:10.37 W/m2 FEW
16:34 67.3 °F /  19.6 °C 32.1 °F /  0.1 °C 30.04 in /  1017.2 hPa North 2.0 mph /  3.2 km/h 7.0 mph /  11.3 km/h 27 % 0.00 in /  0 mm WeatherDisplay:10.37 W/m2 FEW
16:39 67.4 °F /  19.7 °C 29.3 °F /  -1.5 °C 30.04 in /  1017.2 hPa NNW 2.0 mph /  3.2 km/h 8.0 mph /  12.9 km/h 24 % 0.00 in /  0 mm WeatherDisplay:10.37 W/m2 FEW
16:44 67.4 °F /  19.7 °C 32.2 °F /  0.1 °C 30.05 in /  1017.5 hPa NNW 1.0 mph /  1.6 km/h 7.0 mph /  11.3 km/h 27 % 0.00 in /  0 mm WeatherDisplay:10.37 W/m2 FEW
16:49 67.4 °F /  19.7 °C 30.3 °F /  -0.9 °C 30.05 in /  1017.5 hPa NNE 2.0 mph /  3.2 km/h 8.0 mph /  12.9 km/h 25 % 0.00 in /  0 mm WeatherDisplay:10.37 W/m2 FEW
16:54 67.2 °F /  19.6 °C 30.2 °F /  -1 °C 30.05 in /  1017.5 hPa North 2.0 mph /  3.2 km/h 5.0 mph /  8 km/h 25 % 0.00 in /  0 mm WeatherDisplay:10.37 W/m2 FEW
16:59 67.1 °F /  19.5 °C 30.1 °F /  -1.1 °C 30.05 in /  1017.5 hPa NNW 2.0 mph /  3.2 km/h 10.0 mph /  16.1 km/h 25 % 0.00 in /  0 mm WeatherDisplay:10.37 W/m2 FEW
17:04 67.2 °F /  19.6 °C 29.2 °F /  -1.6 °C 30.05 in /  1017.5 hPa NNW 6.0 mph /  9.7 km/h 10.0 mph /  16.1 km/h 24 % 0.00 in /  0 mm WeatherDisplay:10.37 W/m2 FEW
17:09 67.2 °F /  19.6 °C 30.1 °F /  -1.1 °C 30.05 in /  1017.5 hPa NNW 2.0 mph /  3.2 km/h 7.0 mph /  11.3 km/h 25 % 0.00 in /  0 mm WeatherDisplay:10.37 W/m2 FEW
17:14 67.2 °F /  19.6 °C 28.1 °F /  -2.2 °C 30.05 in /  1017.5 hPa NNW 6.0 mph /  9.7 km/h 10.0 mph /  16.1 km/h 23 % 0.00 in /  0 mm WeatherDisplay:10.37 W/m2 FEW
17:19 67.1 °F /  19.5 °C 28.0 °F /  -2.2 °C 30.06 in /  1017.8 hPa Calm   8.0 mph /  12.9 km/h 23 % 0.00 in /  0 mm WeatherDisplay:10.37 W/m2 FEW
17:24 67.1 °F /  19.5 °C 28.0 °F /  -2.2 °C 30.05 in /  1017.5 hPa Calm   4.0 mph /  6.4 km/h 23 % 0.00 in /  0 mm WeatherDisplay:10.37 W/m2 FEW
17:29 67.1 °F /  19.5 °C 28.0 °F /  -2.2 °C 30.06 in /  1017.8 hPa Calm   4.0 mph /  6.4 km/h 23 % 0.00 in /  0 mm WeatherDisplay:10.37 W/m2 FEW
17:34 67.2 °F /  19.6 °C 29.2 °F /  -1.6 °C 30.06 in /  1017.8 hPa Calm   5.0 mph /  8 km/h 24 % 0.00 in /  0 mm WeatherDisplay:10.37 W/m2 FEW
17:39 67.3 °F /  19.6 °C 38.7 °F /  3.7 °C 30.06 in /  1017.8 hPa ENE 1.0 mph /  1.6 km/h 3.0 mph /  4.8 km/h 35 % 0.00 in /  0 mm WeatherDisplay:10.37 W/m2 FEW
17:44 67.1 °F /  19.5 °C 39.2 °F /  4 °C 30.06 in /  1017.8 hPa East 1.0 mph /  1.6 km/h 3.0 mph /  4.8 km/h 36 % 0.00 in /  0 mm WeatherDisplay:10.37 W/m2 FEW
17:49 66.8 °F /  19.3 °C 40.3 °F /  4.6 °C 30.06 in /  1017.8 hPa East 1.0 mph /  1.6 km/h 2.0 mph /  3.2 km/h 38 % 0.00 in /  0 mm WeatherDisplay:10.37 W/m2 FEW
17:54 66.3 °F /  19.1 °C 41.2 °F /  5.1 °C 30.06 in /  1017.8 hPa Calm   3.0 mph /  4.8 km/h 40 % 0.00 in /  0 mm WeatherDisplay:10.37 W/m2 FEW
17:59 65.9 °F /  18.8 °C 40.2 °F /  4.6 °C 30.06 in /  1017.8 hPa Calm   2.0 mph /  3.2 km/h 39 % 0.00 in /  0 mm WeatherDisplay:10.37 W/m2 FEW
18:04 65.7 °F /  18.7 °C 40.0 °F /  4.4 °C 30.06 in /  1017.8 hPa Calm   3.0 mph /  4.8 km/h 39 % 0.00 in /  0 mm WeatherDisplay:10.37 W/m2 FEW
18:09 65.3 °F /  18.5 °C 39.7 °F /  4.3 °C 30.06 in /  1017.8 hPa Calm   2.0 mph /  3.2 km/h 39 % 0.00 in /  0 mm WeatherDisplay:10.37 W/m2 FEW
18:14 65.0 °F /  18.3 °C 39.4 °F /  4.1 °C 30.07 in /  1018.2 hPa Calm   1.0 mph /  1.6 km/h 39 % 0.00 in /  0 mm WeatherDisplay:10.37 W/m2 FEW
18:19 64.7 °F /  18.2 °C 40.5 °F /  4.7 °C 30.07 in /  1018.2 hPa Calm   1.0 mph /  1.6 km/h 41 % 0.00 in /  0 mm WeatherDisplay:10.37 W/m2 FEW
18:24 64.6 °F /  18.1 °C 39.7 °F /  4.3 °C 30.07 in /  1018.2 hPa Calm   1.0 mph /  1.6 km/h 40 % 0.00 in /  0 mm WeatherDisplay:10.37 W/m2 FEW
18:29 64.5 °F /  18.1 °C 39.6 °F /  4.2 °C 30.07 in /  1018.2 hPa Calm   3.0 mph /  4.8 km/h 40 % 0.00 in /  0 mm WeatherDisplay:10.37 W/m2 FEW
18:34 64.3 °F /  17.9 °C 39.4 °F /  4.1 °C 30.07 in /  1018.2 hPa Calm   3.0 mph /  4.8 km/h 40 % 0.00 in /  0 mm WeatherDisplay:10.37 W/m2 FEW
18:39 64.1 °F /  17.8 °C 39.9 °F /  4.4 °C 30.07 in /  1018.2 hPa Calm   1.0 mph /  1.6 km/h 41 % 0.00 in /  0 mm WeatherDisplay:10.37 W/m2 FEW
18:44 64.0 °F /  17.8 °C 40.4 °F /  4.7 °C 30.08 in /  1018.5 hPa Calm   3.0 mph /  4.8 km/h 42 % 0.00 in /  0 mm WeatherDisplay:10.37 W/m2 FEW
18:49 63.8 °F /  17.7 °C 39.6 °F /  4.2 °C 30.08 in /  1018.5 hPa Calm   1.0 mph /  1.6 km/h 41 % 0.00 in /  0 mm WeatherDisplay:10.37 W/m2 FEW
18:54 63.6 °F /  17.6 °C 39.5 °F /  4.2 °C 30.08 in /  1018.5 hPa Calm     41 % 0.00 in /  0 mm WeatherDisplay:10.37 W/m2 FEW
18:59 63.5 °F /  17.5 °C 40.0 °F /  4.4 °C 30.09 in /  1018.8 hPa Calm     42 % 0.00 in /  0 mm WeatherDisplay:10.37 W/m2 FEW
19:04 63.3 °F /  17.4 °C 39.8 °F /  4.3 °C 30.09 in /  1018.8 hPa East 1.0 mph /  1.6 km/h 5.0 mph /  8 km/h 42 % 0.00 in /  0 mm WeatherDisplay:10.37 W/m2 FEW
19:09 62.9 °F /  17.2 °C 38.8 °F /  3.8 °C 30.10 in /  1019.2 hPa Calm   3.0 mph /  4.8 km/h 41 % 0.00 in /  0 mm WeatherDisplay:10.37 W/m2 FEW
19:14 62.6 °F /  17 °C 39.7 °F /  4.3 °C 30.10 in /  1019.2 hPa Calm   1.0 mph /  1.6 km/h 43 % 0.00 in /  0 mm WeatherDisplay:10.37 W/m2 FEW
19:19 62.1 °F /  16.7 °C 38.8 °F /  3.8 °C 30.10 in /  1019.2 hPa Calm   2.0 mph /  3.2 km/h 42 % 0.00 in /  0 mm WeatherDisplay:10.37 W/m2 FEW
19:24 61.8 °F /  16.6 °C 37.2 °F /  2.9 °C 30.11 in /  1019.5 hPa Calm   3.0 mph /  4.8 km/h 40 % 0.00 in /  0 mm WeatherDisplay:10.37 W/m2 FEW
19:29 61.4 °F /  16.3 °C 38.1 °F /  3.4 °C 30.11 in /  1019.5 hPa Calm   1.0 mph /  1.6 km/h 42 % 0.00 in /  0 mm WeatherDisplay:10.37 W/m2 FEW
19:34 61.2 °F /  16.2 °C 38.5 °F /  3.6 °C 30.11 in /  1019.5 hPa Calm   1.0 mph /  1.6 km/h 43 % 0.00 in /  0 mm WeatherDisplay:10.37 W/m2 FEW
19:39 60.8 °F /  16 °C 37.6 °F /  3.1 °C 30.12 in /  1019.9 hPa Calm     42 % 0.00 in /  0 mm WeatherDisplay:10.37 W/m2 FEW
19:44 60.5 °F /  15.8 °C 37.3 °F /  2.9 °C 30.12 in /  1019.9 hPa Calm   2.0 mph /  3.2 km/h 42 % 0.00 in /  0 mm WeatherDisplay:10.37 W/m2 FEW
19:49 60.2 °F /  15.7 °C 37.6 °F /  3.1 °C 30.12 in /  1019.9 hPa Calm   1.0 mph /  1.6 km/h 43 % 0.00 in /  0 mm WeatherDisplay:10.37 W/m2 FEW
19:54 59.9 °F /  15.5 °C 38.5 °F /  3.6 °C 30.13 in /  1020.2 hPa Calm     45 % 0.00 in /  0 mm WeatherDisplay:10.37 W/m2 FEW
19:59 59.6 °F /  15.3 °C 39.3 °F /  4.1 °C 30.13 in /  1020.2 hPa Calm     47 % 0.00 in /  0 mm WeatherDisplay:10.37 W/m2 FEW
20:04 59.3 °F /  15.2 °C 38.5 °F /  3.6 °C 30.14 in /  1020.5 hPa Calm     46 % 0.00 in /  0 mm WeatherDisplay:10.37 W/m2 FEW
20:09 58.9 °F /  14.9 °C 37.6 °F /  3.1 °C 30.14 in /  1020.5 hPa Calm     45 % 0.00 in /  0 mm WeatherDisplay:10.37 W/m2 FEW
20:14 58.5 °F /  14.7 °C 38.3 °F /  3.5 °C 30.14 in /  1020.5 hPa Calm     47 % 0.00 in /  0 mm WeatherDisplay:10.37 W/m2 FEW
20:19 58.1 °F /  14.5 °C 38.0 °F /  3.3 °C 30.14 in /  1020.5 hPa Calm     47 % 0.00 in /  0 mm WeatherDisplay:10.37 W/m2 FEW
20:24 57.6 °F /  14.2 °C 37.0 °F /  2.8 °C 30.15 in /  1020.9 hPa Calm     46 % 0.00 in /  0 mm WeatherDisplay:10.37 W/m2 FEW
20:29 57.2 °F /  14 °C 37.7 °F /  3.2 °C 30.15 in /  1020.9 hPa Calm     48 % 0.00 in /  0 mm WeatherDisplay:10.37 W/m2 FEW
20:34 56.7 °F /  13.7 °C 37.2 °F /  2.9 °C 30.15 in /  1020.9 hPa Calm     48 % 0.00 in /  0 mm WeatherDisplay:10.37 W/m2 FEW
20:39 56.2 °F /  13.4 °C 37.3 °F /  2.9 °C 30.16 in /  1021.2 hPa Calm     49 % 0.00 in /  0 mm WeatherDisplay:10.37 W/m2 FEW
20:44 55.7 °F /  13.2 °C 37.8 °F /  3.2 °C 30.16 in /  1021.2 hPa Calm     51 % 0.00 in /  0 mm WeatherDisplay:10.37 W/m2 FEW
20:49 55.2 °F /  12.9 °C 37.9 °F /  3.3 °C 30.17 in /  1021.6 hPa Calm     52 % 0.00 in /  0 mm WeatherDisplay:10.37 W/m2 FEW
20:54 54.8 °F /  12.7 °C 38.0 °F /  3.3 °C 30.17 in /  1021.6 hPa Calm     53 % 0.00 in /  0 mm WeatherDisplay:10.37 W/m2 FEW
20:59 54.4 °F /  12.4 °C 37.6 °F /  3.1 °C 30.17 in /  1021.6 hPa Calm   1.0 mph /  1.6 km/h 53 % 0.00 in /  0 mm WeatherDisplay:10.37 W/m2 FEW
21:04 54.1 °F /  12.3 °C 37.8 °F /  3.2 °C 30.18 in /  1021.9 hPa Calm     54 % 0.00 in /  0 mm WeatherDisplay:10.37 W/m2 FEW
21:09 53.6 °F /  12 °C 37.8 °F /  3.2 °C 30.18 in /  1021.9 hPa Calm     55 % 0.00 in /  0 mm WeatherDisplay:10.37 W/m2 FEW
21:14 53.1 °F /  11.7 °C 37.9 °F /  3.3 °C 30.18 in /  1021.9 hPa Calm   2.0 mph /  3.2 km/h 56 % 0.00 in /  0 mm WeatherDisplay:10.37 W/m2 FEW
21:19 52.7 °F /  11.5 °C 37.5 °F /  3.1 °C 30.19 in /  1022.2 hPa Calm     56 % 0.00 in /  0 mm WeatherDisplay:10.37 W/m2 FEW
21:24 52.3 °F /  11.3 °C 37.5 °F /  3.1 °C 30.19 in /  1022.2 hPa Calm     57 % 0.00 in /  0 mm WeatherDisplay:10.37 W/m2 FEW
21:29 51.9 °F /  11.1 °C 37.6 °F /  3.1 °C 30.19 in /  1022.2 hPa Calm     58 % 0.00 in /  0 mm WeatherDisplay:10.37 W/m2 FEW
21:34 51.5 °F /  10.8 °C 37.6 °F /  3.1 °C 30.20 in /  1022.6 hPa Calm     59 % 0.00 in /  0 mm WeatherDisplay:10.37 W/m2 FEW
21:39 51.1 °F /  10.6 °C 37.7 °F /  3.2 °C 30.20 in /  1022.6 hPa Calm     60 % 0.00 in /  0 mm WeatherDisplay:10.37 W/m2 FEW
21:44 50.7 °F /  10.4 °C 37.7 °F /  3.2 °C 30.21 in /  1022.9 hPa Calm     61 % 0.00 in /  0 mm WeatherDisplay:10.37 W/m2 FEW
21:49 50.3 °F /  10.2 °C 37.4 °F /  3 °C 30.21 in /  1022.9 hPa Calm     61 % 0.00 in /  0 mm WeatherDisplay:10.37 W/m2 FEW
21:54 49.9 °F /  9.9 °C 37.4 °F /  3 °C 30.21 in /  1022.9 hPa Calm     62 % 0.00 in /  0 mm WeatherDisplay:10.37 W/m2 FEW
21:59 49.6 °F /  9.8 °C 37.1 °F /  2.8 °C 30.22 in /  1023.2 hPa Calm     62 % 0.00 in /  0 mm WeatherDisplay:10.37 W/m2 FEW
22:04 49.2 °F /  9.6 °C 36.7 °F /  2.6 °C 30.22 in /  1023.2 hPa Calm     62 % 0.00 in /  0 mm WeatherDisplay:10.37 W/m2 FEW
22:09 48.9 °F /  9.4 °C 36.4 °F /  2.4 °C 30.22 in /  1023.2 hPa Calm     62 % 0.00 in /  0 mm WeatherDisplay:10.37 W/m2 FEW
22:14 48.6 °F /  9.2 °C 36.6 °F /  2.6 °C 30.22 in /  1023.2 hPa Calm     63 % 0.00 in /  0 mm WeatherDisplay:10.37 W/m2 FEW
22:24 48.1 °F /  8.9 °C 36.5 °F /  2.5 °C 30.23 in /  1023.6 hPa Calm     64 % 0.00 in /  0 mm WeatherDisplay:10.37 W/m2 FEW
22:29 47.8 °F /  8.8 °C 36.2 °F /  2.3 °C 30.23 in /  1023.6 hPa Calm     64 % 0.00 in /  0 mm WeatherDisplay:10.37 W/m2 FEW
22:34 47.4 °F /  8.6 °C 36.2 °F /  2.3 °C 30.23 in /  1023.6 hPa Calm     65 % 0.00 in /  0 mm WeatherDisplay:10.37 W/m2 FEW
22:39 47.1 °F /  8.4 °C 35.9 °F /  2.2 °C 30.23 in /  1023.6 hPa Calm     65 % 0.00 in /  0 mm WeatherDisplay:10.37 W/m2 FEW
22:44 46.8 °F /  8.2 °C 35.6 °F /  2 °C 30.24 in /  1023.9 hPa Calm     65 % 0.00 in /  0 mm WeatherDisplay:10.37 W/m2 FEW
22:49 46.3 °F /  7.9 °C 36.0 °F /  2.2 °C 30.24 in /  1023.9 hPa Calm     67 % 0.00 in /  0 mm WeatherDisplay:10.37 W/m2 FEW
22:54 45.9 °F /  7.7 °C 35.6 °F /  2 °C 30.24 in /  1023.9 hPa Calm     67 % 0.00 in /  0 mm WeatherDisplay:10.37 W/m2 FEW
22:59 45.7 °F /  7.6 °C 35.7 °F /  2.1 °C 30.25 in /  1024.3 hPa Calm     68 % 0.00 in /  0 mm WeatherDisplay:10.37 W/m2 FEW
23:04 45.3 °F /  7.4 °C 35.4 °F /  1.9 °C 30.25 in /  1024.3 hPa Calm     68 % 0.00 in /  0 mm WeatherDisplay:10.37 W/m2 FEW
23:09 45.1 °F /  7.3 °C 35.1 °F /  1.7 °C 30.25 in /  1024.3 hPa Calm     68 % 0.00 in /  0 mm WeatherDisplay:10.37 W/m2 FEW
23:14 44.8 °F /  7.1 °C 34.9 °F /  1.6 °C 30.25 in /  1024.3 hPa Calm     68 % 0.00 in /  0 mm WeatherDisplay:10.37 W/m2 FEW
23:19 44.5 °F /  6.9 °C 34.6 °F /  1.4 °C 30.25 in /  1024.3 hPa Calm     68 % 0.00 in /  0 mm WeatherDisplay:10.37 W/m2 FEW
23:24 44.2 °F /  6.8 °C 34.3 °F /  1.3 °C 30.26 in /  1024.6 hPa Calm     68 % 0.00 in /  0 mm WeatherDisplay:10.37 W/m2 FEW
23:29 43.9 °F /  6.6 °C 34.4 °F /  1.3 °C 30.26 in /  1024.6 hPa Calm     69 % 0.00 in /  0 mm WeatherDisplay:10.37 W/m2 FEW
23:34 43.6 °F /  6.4 °C 34.1 °F /  1.2 °C 30.26 in /  1024.6 hPa Calm     69 % 0.00 in /  0 mm WeatherDisplay:10.37 W/m2 FEW
23:39 43.3 °F /  6.3 °C 34.2 °F /  1.2 °C 30.26 in /  1024.6 hPa Calm     70 % 0.00 in /  0 mm WeatherDisplay:10.37 W/m2 FEW
23:44 43.1 °F /  6.2 °C 34.3 °F /  1.3 °C 30.27 in /  1024.9 hPa Calm     71 % 0.00 in /  0 mm WeatherDisplay:10.37 W/m2 FEW
23:49 42.9 °F /  6.1 °C 34.5 °F /  1.4 °C 30.26 in /  1024.6 hPa Calm     72 % 0.00 in /  0 mm WeatherDisplay:10.37 W/m2 FEW
23:54 42.7 °F /  5.9 °C 34.3 °F /  1.3 °C 30.27 in /  1024.9 hPa Calm     72 % 0.00 in /  0 mm WeatherDisplay:10.37 W/m2 FEW
23:59 42.5 °F /  5.8 °C 34.1 °F /  1.2 °C 30.27 in /  1024.9 hPa Calm     72 % 0.00 in /  0 mm WeatherDisplay:10.37 W/m2 FEW
Juneau County Weather
Compliments of Weather Underground - 3 mb